Kaleen Mc Allister — WDB3847 — position and weather

sailwx.info

Track history (hours):
 
Tides and Currents Weather Stations Pressure Air Temp Water Temp Dewpoint Dewpoint Depression Visibility Wind Speed Wind Dir Waves Ship Positions

Kaleen Mc Allister

Owner: MC ALLISTER TOWING & TRANSPORTATION INC, NEW YORK, NY. More information available from US FCC via Universal Licensing System and Coast Guard Vessel Documentation Center.

Last reported at 2015-Apr-27 23:33 UTC. Time now 2015-Apr-28 00:31 UTC.
Position N 39°16' W 076°35'.

Length 20 m; draft 4 m.

Type: Towing. MMSI: 366891960.

Date/timePositionNaut miles runAvg speedWind from/ knotsBaromVisibWave heightAir tempDewpointWater temp
2015-Apr-27 23:33N 39°16' W 076°35'3 2.3
2015-Apr-27 22:24N 39°14' W 076°33'3 3.1
2015-Apr-27 21:33N 39°16' W 076°35'0 0.0
2015-Apr-27 20:33N 39°16' W 076°35'0 0.0
2015-Apr-27 19:32N 39°16' W 076°35'0 0.0
2015-Apr-27 18:32N 39°16' W 076°35'0 0.0
2015-Apr-27 17:14N 39°16' W 076°35'0 0.0
2015-Apr-27 15:18N 39°16' W 076°35'0 0.0
2015-Apr-27 14:33N 39°16' W 076°35'0 0.0
2015-Apr-27 13:33N 39°16' W 076°35'0 0.0
2015-Apr-27 12:33N 39°16' W 076°35'2 0.8
2015-Apr-27 10:19N 39°15' W 076°34'0 0.2
2015-Apr-27 09:33N 39°15' W 076°34'2 1.3
2015-Apr-27 08:25N 39°14' W 076°32'0 0.0
2015-Apr-27 07:26N 39°14' W 076°32'0 0.0
2015-Apr-27 06:32N 39°14' W 076°32'2 1.1
2015-Apr-27 04:32N 39°16' W 076°34'1 0.6
2015-Apr-27 03:32N 39°16' W 076°35'0 0.0
2015-Apr-27 02:32N 39°16' W 076°35'0 0.0
2015-Apr-27 01:31N 39°16' W 076°35'0 0.0
2015-Apr-27 00:32N 39°16' W 076°35'0 0.0
2015-Apr-26 23:32N 39°16' W 076°35'0 0.0
2015-Apr-26 22:32N 39°16' W 076°35'0 0.0
2015-Apr-26 21:33N 39°16' W 076°35'0 0.0
2015-Apr-26 20:25N 39°16' W 076°35'0 0.0
2015-Apr-26 19:32N 39°16' W 076°35'0 0.0
2015-Apr-26 18:25N 39°16' W 076°35'0 0.0
2015-Apr-26 17:27N 39°16' W 076°35'0 0.0
2015-Apr-26 16:08N 39°16' W 076°35'0 0.0
2015-Apr-26 15:31N 39°16' W 076°35'0 0.0
2015-Apr-26 14:32N 39°16' W 076°35'0 0.0
2015-Apr-26 13:20N 39°16' W 076°35'0 0.0
2015-Apr-26 12:34N 39°16' W 076°35'0 0.0
2015-Apr-26 11:34N 39°16' W 076°35'0 0.0
2015-Apr-26 10:34N 39°16' W 076°35'1 0.9
2015-Apr-26 09:29N 39°15' W 076°34'1 0.5
2015-Apr-26 08:11N 39°15' W 076°33'1 0.9
2015-Apr-26 07:29N 39°15' W 076°34'0 0.0
2015-Apr-26 06:27N 39°15' W 076°34'1 0.6
2015-Apr-26 05:27N 39°15' W 076°33'2 1.5
2015-Apr-26 04:26N 39°16' W 076°35'0 0.0
2015-Apr-26 03:33N 39°16' W 076°35'0 0.0
2015-Apr-26 02:33N 39°16' W 076°35'0 0.0
2015-Apr-26 01:32N 39°16' W 076°35'0 0.0
2015-Apr-26 00:24N 39°16' W 076°35'0 0.5
2015-Apr-25 23:33N 39°16' W 076°34'3 2.3
2015-Apr-25 22:18N 39°14' W 076°32'2 2.2
2015-Apr-25 21:28N 39°15' W 076°33'1 1.6
2015-Apr-25 20:33N 39°16' W 076°35'0 0.2
2015-Apr-25 19:32N 39°16' W 076°35'0 0.0
2015-Apr-25 18:26N 39°16' W 076°35'0 0.0
2015-Apr-25 17:26N 39°16' W 076°35'0 0.0
2015-Apr-25 16:31N 39°16' W 076°35'0 0.0
2015-Apr-25 15:25N 39°16' W 076°35'2 2.2
2015-Apr-25 14:28N 39°15' W 076°33'1 0.1
2015-Apr-25 06:34N 39°15' W 076°34'1 1.3
2015-Apr-25 05:34N 39°16' W 076°35'0 0.0
2015-Apr-25 04:33N 39°16' W 076°35'0 0.0
2015-Apr-25 03:33N 39°16' W 076°35'0 0.0
2015-Apr-25 02:33N 39°16' W 076°35'0 0.0
2015-Apr-25 01:34N 39°16' W 076°35'0 0.0
2015-Apr-25 00:34N 39°16' W 076°35'0 0.0
2015-Apr-24 23:33N 39°16' W 076°35'1 1.1
2015-Apr-24 22:34N 39°15' W 076°35'2 1.6
2015-Apr-24 21:16N 39°15' W 076°32'2 3.1
2015-Apr-24 20:33N 39°16' W 076°34'0 0.3
2015-Apr-24 19:33N 39°16' W 076°35'0 0.0
2015-Apr-24 18:23N 39°16' W 076°35'0 0.0
2015-Apr-24 17:32N 39°16' W 076°35'0 0.0
2015-Apr-24 16:33N 39°16' W 076°35'0 0.0
2015-Apr-24 15:33N 39°16' W 076°35'1 0.8
2015-Apr-24 14:32N 39°15' W 076°35'3 0.8
2015-Apr-24 11:26N 39°15' W 076°32'2 1.8
2015-Apr-24 10:32N 39°13' W 076°32'2 1.8
2015-Apr-24 09:32N 39°15' W 076°32'2 2.0
2015-Apr-24 08:32N 39°16' W 076°35'0 0.2
2015-Apr-24 07:32N 39°16' W 076°35'0 0.0
2015-Apr-24 06:33N 39°16' W 076°35'0 0.0
2015-Apr-24 05:32N 39°16' W 076°35'0 0.0
2015-Apr-24 04:32N 39°16' W 076°35'0 0.0
2015-Apr-24 03:33N 39°16' W 076°35'0 0.0
2015-Apr-24 02:27N 39°16' W 076°35'0 0.0
2015-Apr-24 01:33N 39°16' W 076°35'0 0.0
2015-Apr-24 00:32N 39°16' W 076°35'0 0.0
2015-Apr-23 23:32N 39°16' W 076°35'0 0.0
2015-Apr-23 22:30N 39°16' W 076°35'0 0.0
2015-Apr-23 21:24N 39°16' W 076°35'0 0.0
2015-Apr-23 20:25N 39°16' W 076°35'0 0.0
2015-Apr-23 19:33N 39°16' W 076°35'0 0.0
2015-Apr-23 18:33N 39°16' W 076°35'0 0.0
2015-Apr-23 17:33N 39°16' W 076°35'0 0.0
2015-Apr-23 16:33N 39°16' W 076°35'0 0.0
2015-Apr-23 15:34N 39°16' W 076°35'0 0.0
2015-Apr-23 14:33N 39°16' W 076°35'0 0.0
2015-Apr-23 13:33N 39°16' W 076°35'0 0.0
2015-Apr-23 12:33N 39°16' W 076°35'0 0.0
2015-Apr-23 11:34N 39°16' W 076°35'0 0.0
2015-Apr-23 10:34N 39°16' W 076°35'2 2.3
2015-Apr-23 09:33N 39°15' W 076°33'3 2.5
2015-Apr-23 08:34N 39°13' W 076°35'2 2.4
2015-Apr-23 07:33N 39°15' W 076°34'2 1.5
2015-Apr-23 06:33N 39°16' W 076°35'0 0.0
2015-Apr-23 05:34N 39°16' W 076°35'0 0.0
2015-Apr-23 04:34N 39°16' W 076°35'0 0.0
2015-Apr-23 03:33N 39°16' W 076°35'0 0.0
2015-Apr-23 02:34N 39°16' W 076°35'0 0.0
2015-Apr-23 01:34N 39°16' W 076°35'1 1.1
2015-Apr-23 00:33N 39°15' W 076°34'1 1.1
2015-Apr-22 23:34N 39°16' W 076°35'0 0.0
2015-Apr-22 22:34N 39°16' W 076°35'0 0.0
2015-Apr-22 21:34N 39°16' W 076°35'0 0.0
2015-Apr-22 20:34N 39°16' W 076°35'0 0.0
2015-Apr-22 19:33N 39°16' W 076°35'0 0.0
2015-Apr-22 18:33N 39°16' W 076°35'0 0.0
2015-Apr-22 17:34N 39°16' W 076°35'0 0.0
2015-Apr-22 16:34N 39°16' W 076°35'0 0.0
2015-Apr-22 15:34N 39°16' W 076°35'0 0.0
2015-Apr-22 14:34N 39°16' W 076°35'2 2.5
2015-Apr-22 13:34N 39°14' W 076°33'2 2.5
2015-Apr-22 12:33N 39°16' W 076°35'0 0.0
2015-Apr-22 11:34N 39°16' W 076°35'0 0.0
2015-Apr-22 10:34N 39°16' W 076°35'0 0.0
2015-Apr-22 09:34N 39°16' W 076°35'0 0.0
2015-Apr-22 08:34N 39°16' W 076°35'0 0.0
2015-Apr-22 07:33N 39°16' W 076°35'0 0.0
2015-Apr-22 06:33N 39°16' W 076°35'0 0.0
2015-Apr-22 05:33N 39°16' W 076°35'0 0.0
2015-Apr-22 04:34N 39°16' W 076°35'0 0.0
2015-Apr-22 03:33N 39°16' W 076°35'0 0.0
2015-Apr-22 02:33N 39°16' W 076°35'0 0.0
2015-Apr-22 01:33N 39°16' W 076°35'0 0.0
2015-Apr-22 00:33N 39°16' W 076°35'0 0.0
2015-Apr-21 23:33N 39°16' W 076°35'0 0.0
2015-Apr-21 22:34N 39°16' W 076°35'0 0.0
2015-Apr-21 21:33N 39°16' W 076°35'0 0.0
2015-Apr-21 20:33N 39°16' W 076°35'0 0.0
2015-Apr-21 19:34N 39°16' W 076°35'0 0.0
2015-Apr-21 18:33N 39°16' W 076°35'0 0.0
2015-Apr-21 17:33N 39°16' W 076°35'0 0.0
2015-Apr-21 16:34N 39°16' W 076°35'0 0.0
2015-Apr-21 15:34N 39°16' W 076°35'0 0.0
2015-Apr-21 14:33N 39°16' W 076°35'0 0.0
2015-Apr-21 13:34N 39°16' W 076°35'0 0.0
2015-Apr-21 12:33N 39°16' W 076°35'1 1.0
2015-Apr-21 11:34N 39°15' W 076°34'3 2.8
2015-Apr-21 10:33N 39°13' W 076°32'4 3.8
2015-Apr-21 09:34N 39°16' W 076°35'0 0.0
2015-Apr-21 08:34N 39°16' W 076°35'0 0.0
2015-Apr-21 07:33N 39°16' W 076°35'0 0.0
2015-Apr-21 06:33N 39°16' W 076°35'0 0.0
2015-Apr-21 05:28N 39°16' W 076°35'0 0.0
2015-Apr-21 04:34N 39°16' W 076°35'0 0.0
2015-Apr-21 03:33N 39°16' W 076°35'0 0.0
2015-Apr-21 02:33N 39°16' W 076°35'0 0.0
2015-Apr-21 01:34N 39°16' W 076°35'0 0.0
2015-Apr-21 00:24N 39°16' W 076°35'0 0.0
2015-Apr-20 23:33N 39°16' W 076°35'0 0.0
2015-Apr-20 22:32N 39°16' W 076°35'0 0.0
2015-Apr-20 21:33N 39°16' W 076°35'3 3.4
2015-Apr-20 20:34N 39°13' W 076°35'0 0.3
2015-Apr-20 19:33N 39°13' W 076°35'2 2.1
2015-Apr-20 18:33N 39°15' W 076°34'2 1.6
2015-Apr-20 17:34N 39°16' W 076°35'0 0.0
2015-Apr-20 16:34N 39°16' W 076°35'0 0.0
2015-Apr-20 15:34N 39°16' W 076°35'0 0.0
2015-Apr-20 14:33N 39°16' W 076°35'0 0.0
2015-Apr-20 13:34N 39°16' W 076°35'0 0.0
2015-Apr-20 12:34N 39°16' W 076°35'0 0.0
2015-Apr-20 11:34N 39°16' W 076°35'0 0.0
2015-Apr-20 10:34N 39°16' W 076°35'1 1.3
2015-Apr-20 09:32N 39°15' W 076°34'1 1.3
2015-Apr-20 08:33N 39°16' W 076°35'0 0.2
2015-Apr-20 07:31N 39°16' W 076°35'0 0.0
2015-Apr-20 06:29N 39°16' W 076°35'0 0.0
2015-Apr-20 05:34N 39°16' W 076°35'0 0.0
2015-Apr-20 04:32N 39°16' W 076°35'0 0.0
2015-Apr-20 03:32N 39°16' W 076°35'0 0.0
2015-Apr-20 02:33N 39°16' W 076°35'0 0.0
2015-Apr-20 01:33N 39°16' W 076°35'0 0.0
2015-Apr-20 00:33N 39°16' W 076°35'0 0.0
2015-Apr-19 23:33N 39°16' W 076°35'0 0.0
2015-Apr-19 22:33N 39°16' W 076°35'0 0.0
2015-Apr-19 21:33N 39°16' W 076°35'0 0.0
2015-Apr-19 20:34N 39°16' W 076°35'0 0.0
2015-Apr-19 19:34N 39°16' W 076°35'2 1.6
2015-Apr-19 18:34N 39°15' W 076°34'1 1.0
2015-Apr-19 17:33N 39°15' W 076°32'0 0.0
2015-Apr-19 16:34N 39°15' W 076°32'3 2.5
2015-Apr-19 15:32N 39°13' W 076°35'2 2.0
2015-Apr-19 14:34N 39°15' W 076°33'2 1.9
2015-Apr-19 13:34N 39°16' W 076°35'0 0.0
2015-Apr-19 12:34N 39°16' W 076°35'0 0.0
2015-Apr-19 11:34N 39°16' W 076°35'0 0.0
2015-Apr-19 10:34N 39°16' W 076°35'0 0.0
2015-Apr-19 09:34N 39°16' W 076°35'0 0.0
2015-Apr-19 08:33N 39°16' W 076°35'0 0.0
2015-Apr-19 07:34N 39°16' W 076°35'0 0.0
2015-Apr-19 06:34N 39°16' W 076°35'0 0.0
2015-Apr-19 05:33N 39°16' W 076°35'0 0.0
2015-Apr-19 04:33N 39°16' W 076°35'0 0.0
2015-Apr-19 03:34N 39°16' W 076°35'0 0.0
2015-Apr-19 02:34N 39°16' W 076°35'0 0.0
2015-Apr-19 01:33N 39°16' W 076°35'0 0.0
2015-Apr-19 00:34N 39°16' W 076°35'0 0.0
2015-Apr-18 23:34N 39°16' W 076°35'0 0.0
2015-Apr-18 22:34N 39°16' W 076°35'0 0.4
2015-Apr-18 21:34N 39°16' W 076°34'0 0.3
2015-Apr-18 20:33N 39°16' W 076°34'1 0.6
2015-Apr-18 19:34N 39°16' W 076°35'0 0.0
2015-Apr-18 18:33N 39°16' W 076°35'0 0.0
2015-Apr-18 17:34N 39°16' W 076°35'3 3.3
2015-Apr-18 16:33N 39°13' W 076°35'0 0.2
2015-Apr-18 14:33N 39°13' W 076°35'0 0.0
2015-Apr-18 13:32N 39°13' W 076°35'0 0.0
2015-Apr-18 12:33N 39°13' W 076°35'0 0.0
2015-Apr-18 11:26N 39°13' W 076°35'0 0.0
2015-Apr-18 09:31N 39°13' W 076°35'0 0.0
2015-Apr-18 08:34N 39°13' W 076°35'0 0.0
2015-Apr-18 07:33N 39°13' W 076°35'0 0.0
2015-Apr-18 06:33N 39°13' W 076°35'0 0.0
2015-Apr-18 05:34N 39°13' W 076°35'0 0.0
2015-Apr-18 04:34N 39°13' W 076°35'0 0.0
2015-Apr-18 03:32N 39°13' W 076°35'0 0.0
2015-Apr-18 02:33N 39°13' W 076°35'0 0.0
2015-Apr-18 01:31N 39°13' W 076°35'0 0.0
2015-Apr-18 00:30N 39°13' W 076°35'  
Track history (hours):
 
Tides and Currents Weather Stations Pressure Air Temp Water Temp Dewpoint Dewpoint Depression Visibility Wind Speed Wind Dir Waves Ship Positions

Kaleen Mc Allister

Owner: MC ALLISTER TOWING & TRANSPORTATION INC, NEW YORK, NY. More information available from US FCC via Universal Licensing System and Coast Guard Vessel Documentation Center.

Last reported at 2015-Apr-27 23:33 UTC. Time now 2015-Apr-28 00:31 UTC.
Position N 39°16' W 076°35'.

Length 20 m; draft 4 m.

Type: Towing. MMSI: 366891960.

Date/timePositionNaut miles runAvg speedWind from/ knotsBaromVisibWave heightAir tempDewpointWater temp
2015-Apr-27 23:33N 39°16' W 076°35'3 2.3
2015-Apr-27 22:24N 39°14' W 076°33'3 3.1
2015-Apr-27 21:33N 39°16' W 076°35'0 0.0
2015-Apr-27 20:33N 39°16' W 076°35'0 0.0
2015-Apr-27 19:32N 39°16' W 076°35'0 0.0
2015-Apr-27 18:32N 39°16' W 076°35'0 0.0
2015-Apr-27 17:14N 39°16' W 076°35'0 0.0
2015-Apr-27 15:18N 39°16' W 076°35'0 0.0
2015-Apr-27 14:33N 39°16' W 076°35'0 0.0
2015-Apr-27 13:33N 39°16' W 076°35'0 0.0
2015-Apr-27 12:33N 39°16' W 076°35'2 0.8
2015-Apr-27 10:19N 39°15' W 076°34'0 0.2
2015-Apr-27 09:33N 39°15' W 076°34'2 1.3
2015-Apr-27 08:25N 39°14' W 076°32'0 0.0
2015-Apr-27 07:26N 39°14' W 076°32'0 0.0
2015-Apr-27 06:32N 39°14' W 076°32'2 1.1
2015-Apr-27 04:32N 39°16' W 076°34'1 0.6
2015-Apr-27 03:32N 39°16' W 076°35'0 0.0
2015-Apr-27 02:32N 39°16' W 076°35'0 0.0
2015-Apr-27 01:31N 39°16' W 076°35'0 0.0
2015-Apr-27 00:32N 39°16' W 076°35'0 0.0
2015-Apr-26 23:32N 39°16' W 076°35'0 0.0
2015-Apr-26 22:32N 39°16' W 076°35'0 0.0
2015-Apr-26 21:33N 39°16' W 076°35'0 0.0
2015-Apr-26 20:25N 39°16' W 076°35'0 0.0
2015-Apr-26 19:32N 39°16' W 076°35'0 0.0
2015-Apr-26 18:25N 39°16' W 076°35'0 0.0
2015-Apr-26 17:27N 39°16' W 076°35'0 0.0
2015-Apr-26 16:08N 39°16' W 076°35'0 0.0
2015-Apr-26 15:31N 39°16' W 076°35'0 0.0
2015-Apr-26 14:32N 39°16' W 076°35'0 0.0
2015-Apr-26 13:20N 39°16' W 076°35'0 0.0
2015-Apr-26 12:34N 39°16' W 076°35'0 0.0
2015-Apr-26 11:34N 39°16' W 076°35'0 0.0
2015-Apr-26 10:34N 39°16' W 076°35'1 0.9
2015-Apr-26 09:29N 39°15' W 076°34'1 0.5
2015-Apr-26 08:11N 39°15' W 076°33'1 0.9
2015-Apr-26 07:29N 39°15' W 076°34'0 0.0
2015-Apr-26 06:27N 39°15' W 076°34'1 0.6
2015-Apr-26 05:27N 39°15' W 076°33'2 1.5
2015-Apr-26 04:26N 39°16' W 076°35'0 0.0
2015-Apr-26 03:33N 39°16' W 076°35'0 0.0
2015-Apr-26 02:33N 39°16' W 076°35'0 0.0
2015-Apr-26 01:32N 39°16' W 076°35'0 0.0
2015-Apr-26 00:24N 39°16' W 076°35'0 0.5
2015-Apr-25 23:33N 39°16' W 076°34'3 2.3
2015-Apr-25 22:18N 39°14' W 076°32'2 2.2
2015-Apr-25 21:28N 39°15' W 076°33'1 1.6
2015-Apr-25 20:33N 39°16' W 076°35'0 0.2
2015-Apr-25 19:32N 39°16' W 076°35'0 0.0
2015-Apr-25 18:26N 39°16' W 076°35'0 0.0
2015-Apr-25 17:26N 39°16' W 076°35'0 0.0
2015-Apr-25 16:31N 39°16' W 076°35'0 0.0
2015-Apr-25 15:25N 39°16' W 076°35'2 2.2
2015-Apr-25 14:28N 39°15' W 076°33'1 0.1
2015-Apr-25 06:34N 39°15' W 076°34'1 1.3
2015-Apr-25 05:34N 39°16' W 076°35'0 0.0
2015-Apr-25 04:33N 39°16' W 076°35'0 0.0
2015-Apr-25 03:33N 39°16' W 076°35'0 0.0
2015-Apr-25 02:33N 39°16' W 076°35'0 0.0
2015-Apr-25 01:34N 39°16' W 076°35'0 0.0
2015-Apr-25 00:34N 39°16' W 076°35'0 0.0
2015-Apr-24 23:33N 39°16' W 076°35'1 1.1
2015-Apr-24 22:34N 39°15' W 076°35'2 1.6
2015-Apr-24 21:16N 39°15' W 076°32'2 3.1
2015-Apr-24 20:33N 39°16' W 076°34'0 0.3
2015-Apr-24 19:33N 39°16' W 076°35'0 0.0
2015-Apr-24 18:23N 39°16' W 076°35'0 0.0
2015-Apr-24 17:32N 39°16' W 076°35'0 0.0
2015-Apr-24 16:33N 39°16' W 076°35'0 0.0
2015-Apr-24 15:33N 39°16' W 076°35'1 0.8
2015-Apr-24 14:32N 39°15' W 076°35'3 0.8
2015-Apr-24 11:26N 39°15' W 076°32'2 1.8
2015-Apr-24 10:32N 39°13' W 076°32'2 1.8
2015-Apr-24 09:32N 39°15' W 076°32'2 2.0
2015-Apr-24 08:32N 39°16' W 076°35'0 0.2
2015-Apr-24 07:32N 39°16' W 076°35'0 0.0
2015-Apr-24 06:33N 39°16' W 076°35'0 0.0
2015-Apr-24 05:32N 39°16' W 076°35'0 0.0
2015-Apr-24 04:32N 39°16' W 076°35'0 0.0
2015-Apr-24 03:33N 39°16' W 076°35'0 0.0
2015-Apr-24 02:27N 39°16' W 076°35'0 0.0
2015-Apr-24 01:33N 39°16' W 076°35'0 0.0
2015-Apr-24 00:32N 39°16' W 076°35'0 0.0
2015-Apr-23 23:32N 39°16' W 076°35'0 0.0
2015-Apr-23 22:30N 39°16' W 076°35'0 0.0
2015-Apr-23 21:24N 39°16' W 076°35'0 0.0
2015-Apr-23 20:25N 39°16' W 076°35'0 0.0
2015-Apr-23 19:33N 39°16' W 076°35'0 0.0
2015-Apr-23 18:33N 39°16' W 076°35'0 0.0
2015-Apr-23 17:33N 39°16' W 076°35'0 0.0
2015-Apr-23 16:33N 39°16' W 076°35'0 0.0
2015-Apr-23 15:34N 39°16' W 076°35'0 0.0
2015-Apr-23 14:33N 39°16' W 076°35'0 0.0
2015-Apr-23 13:33N 39°16' W 076°35'0 0.0
2015-Apr-23 12:33N 39°16' W 076°35'0 0.0
2015-Apr-23 11:34N 39°16' W 076°35'0 0.0
2015-Apr-23 10:34N 39°16' W 076°35'2 2.3
2015-Apr-23 09:33N 39°15' W 076°33'3 2.5
2015-Apr-23 08:34N 39°13' W 076°35'2 2.4
2015-Apr-23 07:33N 39°15' W 076°34'2 1.5
2015-Apr-23 06:33N 39°16' W 076°35'0 0.0
2015-Apr-23 05:34N 39°16' W 076°35'0 0.0
2015-Apr-23 04:34N 39°16' W 076°35'0 0.0
2015-Apr-23 03:33N 39°16' W 076°35'0 0.0
2015-Apr-23 02:34N 39°16' W 076°35'0 0.0
2015-Apr-23 01:34N 39°16' W 076°35'1 1.1
2015-Apr-23 00:33N 39°15' W 076°34'1 1.1
2015-Apr-22 23:34N 39°16' W 076°35'0 0.0
2015-Apr-22 22:34N 39°16' W 076°35'0 0.0
2015-Apr-22 21:34N 39°16' W 076°35'0 0.0
2015-Apr-22 20:34N 39°16' W 076°35'0 0.0
2015-Apr-22 19:33N 39°16' W 076°35'0 0.0
2015-Apr-22 18:33N 39°16' W 076°35'0 0.0
2015-Apr-22 17:34N 39°16' W 076°35'0 0.0
2015-Apr-22 16:34N 39°16' W 076°35'0 0.0
2015-Apr-22 15:34N 39°16' W 076°35'0 0.0
2015-Apr-22 14:34N 39°16' W 076°35'2 2.5
2015-Apr-22 13:34N 39°14' W 076°33'2 2.5
2015-Apr-22 12:33N 39°16' W 076°35'0 0.0
2015-Apr-22 11:34N 39°16' W 076°35'0 0.0
2015-Apr-22 10:34N 39°16' W 076°35'0 0.0
2015-Apr-22 09:34N 39°16' W 076°35'0 0.0
2015-Apr-22 08:34N 39°16' W 076°35'0 0.0
2015-Apr-22 07:33N 39°16' W 076°35'0 0.0
2015-Apr-22 06:33N 39°16' W 076°35'0 0.0
2015-Apr-22 05:33N 39°16' W 076°35'0 0.0
2015-Apr-22 04:34N 39°16' W 076°35'0 0.0
2015-Apr-22 03:33N 39°16' W 076°35'0 0.0
2015-Apr-22 02:33N 39°16' W 076°35'0 0.0
2015-Apr-22 01:33N 39°16' W 076°35'0 0.0
2015-Apr-22 00:33N 39°16' W 076°35'0 0.0
2015-Apr-21 23:33N 39°16' W 076°35'0 0.0
2015-Apr-21 22:34N 39°16' W 076°35'0 0.0
2015-Apr-21 21:33N 39°16' W 076°35'0 0.0
2015-Apr-21 20:33N 39°16' W 076°35'0 0.0
2015-Apr-21 19:34N 39°16' W 076°35'0 0.0
2015-Apr-21 18:33N 39°16' W 076°35'0 0.0
2015-Apr-21 17:33N 39°16' W 076°35'0 0.0
2015-Apr-21 16:34N 39°16' W 076°35'0 0.0
2015-Apr-21 15:34N 39°16' W 076°35'0 0.0
2015-Apr-21 14:33N 39°16' W 076°35'0 0.0
2015-Apr-21 13:34N 39°16' W 076°35'0 0.0
2015-Apr-21 12:33N 39°16' W 076°35'1 1.0
2015-Apr-21 11:34N 39°15' W 076°34'3 2.8
2015-Apr-21 10:33N 39°13' W 076°32'4 3.8
2015-Apr-21 09:34N 39°16' W 076°35'0 0.0
2015-Apr-21 08:34N 39°16' W 076°35'0 0.0
2015-Apr-21 07:33N 39°16' W 076°35'0 0.0
2015-Apr-21 06:33N 39°16' W 076°35'0 0.0
2015-Apr-21 05:28N 39°16' W 076°35'0 0.0
2015-Apr-21 04:34N 39°16' W 076°35'0 0.0
2015-Apr-21 03:33N 39°16' W 076°35'0 0.0
2015-Apr-21 02:33N 39°16' W 076°35'0 0.0
2015-Apr-21 01:34N 39°16' W 076°35'0 0.0
2015-Apr-21 00:24N 39°16' W 076°35'0 0.0
2015-Apr-20 23:33N 39°16' W 076°35'0 0.0
2015-Apr-20 22:32N 39°16' W 076°35'0 0.0
2015-Apr-20 21:33N 39°16' W 076°35'3 3.4
2015-Apr-20 20:34N 39°13' W 076°35'0 0.3
2015-Apr-20 19:33N 39°13' W 076°35'2 2.1
2015-Apr-20 18:33N 39°15' W 076°34'2 1.6
2015-Apr-20 17:34N 39°16' W 076°35'0 0.0
2015-Apr-20 16:34N 39°16' W 076°35'0 0.0
2015-Apr-20 15:34N 39°16' W 076°35'0 0.0
2015-Apr-20 14:33N 39°16' W 076°35'0 0.0
2015-Apr-20 13:34N 39°16' W 076°35'0 0.0
2015-Apr-20 12:34N 39°16' W 076°35'0 0.0
2015-Apr-20 11:34N 39°16' W 076°35'0 0.0
2015-Apr-20 10:34N 39°16' W 076°35'1 1.3
2015-Apr-20 09:32N 39°15' W 076°34'1 1.3
2015-Apr-20 08:33N 39°16' W 076°35'0 0.2
2015-Apr-20 07:31N 39°16' W 076°35'0 0.0
2015-Apr-20 06:29N 39°16' W 076°35'0 0.0
2015-Apr-20 05:34N 39°16' W 076°35'0 0.0
2015-Apr-20 04:32N 39°16' W 076°35'0 0.0
2015-Apr-20 03:32N 39°16' W 076°35'0 0.0
2015-Apr-20 02:33N 39°16' W 076°35'0 0.0
2015-Apr-20 01:33N 39°16' W 076°35'0 0.0
2015-Apr-20 00:33N 39°16' W 076°35'0 0.0
2015-Apr-19 23:33N 39°16' W 076°35'0 0.0
2015-Apr-19 22:33N 39°16' W 076°35'0 0.0
2015-Apr-19 21:33N 39°16' W 076°35'0 0.0
2015-Apr-19 20:34N 39°16' W 076°35'0 0.0
2015-Apr-19 19:34N 39°16' W 076°35'2 1.6
2015-Apr-19 18:34N 39°15' W 076°34'1 1.0
2015-Apr-19 17:33N 39°15' W 076°32'0 0.0
2015-Apr-19 16:34N 39°15' W 076°32'3 2.5
2015-Apr-19 15:32N 39°13' W 076°35'2 2.0
2015-Apr-19 14:34N 39°15' W 076°33'2 1.9
2015-Apr-19 13:34N 39°16' W 076°35'0 0.0
2015-Apr-19 12:34N 39°16' W 076°35'0 0.0
2015-Apr-19 11:34N 39°16' W 076°35'0 0.0
2015-Apr-19 10:34N 39°16' W 076°35'0 0.0
2015-Apr-19 09:34N 39°16' W 076°35'0 0.0
2015-Apr-19 08:33N 39°16' W 076°35'0 0.0
2015-Apr-19 07:34N 39°16' W 076°35'0 0.0
2015-Apr-19 06:34N 39°16' W 076°35'0 0.0
2015-Apr-19 05:33N 39°16' W 076°35'0 0.0
2015-Apr-19 04:33N 39°16' W 076°35'0 0.0
2015-Apr-19 03:34N 39°16' W 076°35'0 0.0
2015-Apr-19 02:34N 39°16' W 076°35'0 0.0
2015-Apr-19 01:33N 39°16' W 076°35'0 0.0
2015-Apr-19 00:34N 39°16' W 076°35'0 0.0
2015-Apr-18 23:34N 39°16' W 076°35'0 0.0
2015-Apr-18 22:34N 39°16' W 076°35'0 0.4
2015-Apr-18 21:34N 39°16' W 076°34'0 0.3
2015-Apr-18 20:33N 39°16' W 076°34'1 0.6
2015-Apr-18 19:34N 39°16' W 076°35'0 0.0
2015-Apr-18 18:33N 39°16' W 076°35'0 0.0
2015-Apr-18 17:34N 39°16' W 076°35'3 3.3
2015-Apr-18 16:33N 39°13' W 076°35'0 0.2
2015-Apr-18 14:33N 39°13' W 076°35'0 0.0
2015-Apr-18 13:32N 39°13' W 076°35'0 0.0
2015-Apr-18 12:33N 39°13' W 076°35'0 0.0
2015-Apr-18 11:26N 39°13' W 076°35'0 0.0
2015-Apr-18 09:31N 39°13' W 076°35'0 0.0
2015-Apr-18 08:34N 39°13' W 076°35'0 0.0
2015-Apr-18 07:33N 39°13' W 076°35'0 0.0
2015-Apr-18 06:33N 39°13' W 076°35'0 0.0
2015-Apr-18 05:34N 39°13' W 076°35'0 0.0
2015-Apr-18 04:34N 39°13' W 076°35'0 0.0
2015-Apr-18 03:32N 39°13' W 076°35'0 0.0
2015-Apr-18 02:33N 39°13' W 076°35'0 0.0
2015-Apr-18 01:31N 39°13' W 076°35'0 0.0
2015-Apr-18 00:30N 39°13' W 076°35'  

Dump ship's entire track history